Terminal Aerodrome Forecast
Issued by NWS Louisville, KY

Home | Current Version | Previous Version | Text Only | Print | Product List | Glossary On
Versions: 1 2 3 4 5 6 7 8 9 10 11 12 13 14 15 16
000
FTUS43 KLMK 220900 AAA
TAFBWG
TAF AMD
KBWG 220945Z 2210/2306 25005KT P6SM VCSH BKN070
     FM221200 28005KT 5SM BR VCSH BKN015
     FM221500 32010KT P6SM BKN035
     FM222000 34010G16KT P6SM SKC
     FM230000 33006KT P6SM SKC=

USA.gov is the U.S. government's official web portal to all federal, state and local government web resources and services.